createdAt,value
2022-07-27T00:01:51.277Z,6.85
2022-07-27T00:04:22.746Z,6.38
2022-07-27T00:06:52.402Z,6.47
2022-07-27T00:09:21.766Z,6.72
2022-07-27T00:11:52.137Z,6.22
2022-07-27T00:14:21.361Z,6.82
2022-07-27T00:16:51.074Z,6.57
2022-07-27T00:19:27.759Z,7.07
2022-07-27T00:21:57.112Z,6.85
2022-07-27T00:24:27.056Z,7.60
2022-07-27T00:26:56.360Z,9.02
2022-07-27T00:29:27.779Z,8.07
2022-07-27T00:31:59.829Z,7.47
2022-07-27T00:34:29.376Z,9.02
2022-07-27T00:36:58.740Z,7.55
2022-07-27T00:39:28.108Z,7.20
2022-07-27T00:41:58.085Z,8.18
2022-07-27T00:44:31.040Z,8.10
2022-07-27T00:47:01.079Z,9.02
2022-07-27T00:49:30.505Z,13.02
2022-07-27T00:52:00.542Z,9.85
2022-07-27T00:54:30.008Z,7.53
2022-07-27T00:56:59.426Z,6.82
2022-07-27T00:59:29.743Z,7.63
2022-07-27T01:01:59.377Z,4.80
2022-07-27T01:04:28.768Z,4.22
2022-07-27T01:06:59.718Z,4.28
2022-07-27T01:09:41.416Z,9.30
2022-07-27T01:12:20.719Z,6.65
2022-07-27T01:14:52.195Z,10.35
2022-07-27T01:17:21.713Z,6.07
2022-07-27T01:19:51.481Z,4.90
2022-07-27T01:22:21.296Z,4.80
2022-07-27T01:24:51.891Z,5.45
2022-07-27T01:27:25.165Z,4.10
2022-07-27T01:29:54.936Z,8.88
2022-07-27T01:32:24.205Z,8.98
2022-07-27T01:34:53.568Z,14.25
2022-07-27T01:37:22.924Z,35.83
2022-07-27T01:39:52.247Z,18.95
2022-07-27T01:42:23.897Z,21.98
2022-07-27T01:44:53.871Z,18.63
2022-07-27T01:47:23.310Z,74.78
2022-07-27T01:49:54.654Z,91.95
2022-07-27T01:52:24.039Z,7.65
2022-07-27T01:54:53.297Z,6.10
2022-07-27T01:57:25.563Z,4.72
2022-07-27T01:59:57.997Z,4.90
2022-07-27T02:02:27.331Z,4.60
2022-07-27T02:04:56.580Z,6.43
2022-07-27T02:07:25.987Z,3.88
2022-07-27T02:09:55.406Z,3.47
2022-07-27T02:12:36.922Z,3.42
2022-07-27T02:15:14.847Z,9.27
2022-07-27T02:17:50.646Z,7.75
2022-07-27T02:20:26.204Z,7.53
2022-07-27T02:23:02.890Z,6.82
2022-07-27T02:25:32.374Z,4.40
2022-07-27T02:28:02.556Z,5.25
2022-07-27T02:30:32.000Z,4.35
2022-07-27T02:33:01.380Z,5.22
2022-07-27T02:35:31.129Z,3.83
2022-07-27T02:38:00.403Z,3.75
2022-07-27T02:40:29.967Z,4.18
2022-07-27T02:42:59.325Z,6.00
2022-07-27T02:45:29.195Z,4.57
2022-07-27T02:47:58.504Z,4.28
2022-07-27T02:50:28.077Z,4.80
2022-07-27T02:52:57.328Z,4.15
2022-07-27T02:55:26.810Z,3.92
2022-07-27T02:57:56.186Z,3.33
2022-07-27T03:00:25.553Z,4.57
2022-07-27T03:02:55.002Z,4.35
2022-07-27T03:05:24.444Z,3.38
2022-07-27T03:07:53.840Z,4.53
2022-07-27T03:10:23.094Z,3.30
2022-07-27T03:12:54.934Z,3.28
2022-07-27T03:15:24.355Z,4.05
2022-07-27T03:17:55.559Z,3.63
2022-07-27T03:20:24.812Z,5.80
2022-07-27T03:22:55.349Z,3.78
2022-07-27T03:25:25.175Z,3.30
2022-07-27T03:27:54.549Z,4.43
2022-07-27T03:30:24.006Z,2.92
2022-07-27T03:32:53.456Z,3.70
2022-07-27T03:35:22.944Z,4.13
2022-07-27T03:37:52.187Z,3.33
2022-07-27T03:40:21.601Z,4.15
2022-07-27T03:42:51.773Z,3.20
2022-07-27T03:45:21.139Z,3.97
2022-07-27T03:47:50.294Z,3.67
2022-07-27T03:50:20.399Z,4.18
2022-07-27T03:52:49.851Z,3.67
2022-07-27T03:55:20.013Z,3.45
2022-07-27T03:57:49.467Z,3.67
2022-07-27T04:00:18.910Z,3.35
2022-07-27T04:02:48.502Z,3.60
2022-07-27T04:05:17.973Z,3.35
2022-07-27T04:07:47.347Z,3.22
2022-07-27T04:10:16.777Z,3.10
2022-07-27T04:12:46.702Z,3.17
2022-07-27T04:15:17.833Z,4.18
2022-07-27T04:17:55.267Z,4.07
2022-07-27T04:20:27.817Z,4.15
2022-07-27T04:22:57.528Z,5.22
2022-07-27T04:25:27.034Z,4.70
2022-07-27T04:27:56.455Z,3.42
2022-07-27T04:30:25.996Z,4.20
2022-07-27T04:32:55.426Z,3.67
2022-07-27T04:35:26.911Z,4.18
2022-07-27T04:37:59.128Z,4.28
2022-07-27T04:40:36.756Z,4.60
2022-07-27T04:43:07.883Z,3.63
2022-07-27T04:45:38.747Z,5.32
2022-07-27T04:48:11.722Z,3.25
2022-07-27T04:50:43.386Z,3.65
2022-07-27T04:53:14.580Z,4.00
2022-07-27T04:55:46.064Z,3.40
2022-07-27T04:58:16.813Z,4.07
2022-07-27T05:00:46.462Z,3.33
2022-07-27T05:03:16.213Z,3.03
2022-07-27T05:05:49.947Z,2.97
2022-07-27T05:08:20.693Z,3.72
2022-07-27T05:10:50.692Z,3.50
2022-07-27T05:13:20.113Z,3.53
2022-07-27T05:15:54.659Z,3.25
2022-07-27T05:18:26.630Z,3.15
2022-07-27T05:20:56.074Z,3.95
2022-07-27T05:23:25.384Z,3.45
2022-07-27T05:25:55.182Z,5.22
2022-07-27T05:28:24.517Z,3.88
2022-07-27T05:30:53.843Z,2.33
2022-07-27T05:33:25.294Z,2.65
2022-07-27T05:35:54.697Z,3.08
2022-07-27T05:38:24.017Z,3.55
2022-07-27T05:40:54.432Z,3.20
2022-07-27T05:43:24.121Z,2.50
2022-07-27T05:45:53.515Z,2.45
2022-07-27T05:48:22.914Z,2.17
2022-07-27T05:50:52.296Z,2.53
2022-07-27T05:53:21.720Z,2.80
2022-07-27T05:55:58.280Z,3.63
2022-07-27T05:58:30.601Z,2.80
2022-07-27T06:00:59.998Z,2.83
2022-07-27T06:03:29.566Z,2.40
2022-07-27T06:06:18.628Z,2.80
2022-07-27T06:08:48.032Z,2.22
2022-07-27T06:11:17.471Z,2.70
2022-07-27T06:13:46.996Z,2.20
2022-07-27T06:16:16.446Z,2.28
2022-07-27T06:18:45.765Z,2.42
2022-07-27T06:21:15.401Z,2.30
2022-07-27T06:23:44.917Z,2.60
2022-07-27T06:26:14.260Z,2.92
2022-07-27T06:28:43.754Z,2.80
2022-07-27T06:31:13.136Z,2.58
2022-07-27T06:33:43.203Z,2.33
2022-07-27T06:36:15.280Z,2.20
2022-07-27T06:38:44.595Z,2.42
2022-07-27T06:41:14.696Z,2.67
2022-07-27T06:43:44.335Z,2.90
2022-07-27T06:46:14.504Z,3.22
2022-07-27T06:48:44.016Z,2.58
2022-07-27T06:51:13.353Z,2.20
2022-07-27T06:53:42.623Z,2.65
2022-07-27T06:56:11.975Z,2.67
2022-07-27T06:58:41.344Z,3.60
2022-07-27T07:01:10.730Z,1.88
2022-07-27T07:03:40.095Z,2.58
2022-07-27T07:06:09.436Z,2.20
2022-07-27T07:08:39.084Z,2.15
2022-07-27T07:11:10.320Z,2.95
2022-07-27T07:13:44.601Z,2.78
2022-07-27T07:16:15.146Z,1.70
2022-07-27T07:18:48.902Z,1.75
2022-07-27T07:21:24.322Z,1.88
2022-07-27T07:23:53.654Z,1.70
2022-07-27T07:26:23.156Z,2.45
2022-07-27T07:28:52.545Z,2.58
2022-07-27T07:31:22.148Z,2.13
2022-07-27T07:33:51.785Z,2.40
2022-07-27T07:36:21.286Z,2.67
2022-07-27T07:38:50.604Z,2.47
2022-07-27T07:41:20.051Z,2.30
2022-07-27T07:43:49.417Z,1.90
2022-07-27T07:46:19.682Z,7.50
2022-07-27T07:48:49.128Z,2.65
2022-07-27T07:51:18.539Z,2.20
2022-07-27T07:53:47.881Z,1.70
2022-07-27T07:56:17.406Z,1.80
2022-07-27T07:58:46.679Z,2.20
2022-07-27T08:01:16.088Z,2.00
2022-07-27T08:03:50.809Z,2.30
2022-07-27T08:06:21.388Z,2.05
2022-07-27T08:08:50.735Z,1.83
2022-07-27T08:11:20.338Z,1.80
2022-07-27T08:13:49.733Z,2.30
2022-07-27T08:16:20.109Z,2.15
2022-07-27T08:18:49.509Z,1.50
2022-07-27T08:21:18.927Z,1.92
2022-07-27T08:23:48.335Z,1.83
2022-07-27T08:26:17.830Z,1.90
2022-07-27T08:28:47.165Z,1.65
2022-07-27T08:31:22.673Z,1.70
2022-07-27T08:33:55.970Z,1.88
2022-07-27T08:36:25.239Z,2.08
2022-07-27T08:38:54.626Z,1.85
2022-07-27T08:41:30.332Z,2.50
2022-07-27T08:44:02.445Z,2.55
2022-07-27T08:46:34.165Z,2.08
2022-07-27T08:49:04.802Z,2.05
2022-07-27T08:51:34.435Z,2.00
2022-07-27T08:54:03.870Z,2.63
2022-07-27T08:56:33.375Z,1.73
2022-07-27T08:59:02.825Z,1.90
2022-07-27T09:01:37.113Z,4.07
2022-07-27T09:04:08.601Z,2.47
2022-07-27T09:06:57.623Z,2.17
2022-07-27T09:09:27.077Z,3.03
2022-07-27T09:12:11.832Z,2.08
2022-07-27T09:15:34.459Z,1.98
2022-07-27T09:18:24.051Z,1.55
2022-07-27T09:21:19.676Z,1.42
2022-07-27T09:24:36.787Z,1.50
2022-07-27T09:27:06.657Z,2.47
2022-07-27T09:29:37.909Z,3.15
2022-07-27T09:32:23.090Z,3.35
2022-07-27T09:34:52.475Z,2.22
2022-07-27T09:37:30.260Z,2.33
2022-07-27T09:40:16.887Z,2.30
2022-07-27T09:46:10.642Z,2.55
2022-07-27T09:48:40.077Z,3.78
2022-07-27T09:51:57.349Z,4.43
2022-07-27T09:54:10.273Z,3.35
2022-07-27T09:56:40.069Z,3.10
2022-07-27T09:59:09.946Z,3.15
2022-07-27T10:01:47.790Z,3.00
2022-07-27T10:04:18.930Z,2.90
2022-07-27T10:07:02.191Z,2.60
2022-07-27T10:09:35.158Z,3.08
2022-07-27T10:12:05.608Z,2.70
2022-07-27T10:14:36.258Z,2.65
2022-07-27T10:17:08.087Z,2.15
2022-07-27T10:19:59.576Z,3.38
2022-07-27T10:22:57.360Z,3.08
2022-07-27T10:25:32.518Z,2.20
2022-07-27T10:28:18.729Z,2.50
2022-07-27T10:30:53.828Z,2.67
2022-07-27T10:33:47.699Z,3.60
2022-07-27T10:36:54.905Z,2.90
2022-07-27T10:39:40.309Z,3.25
2022-07-27T10:42:25.599Z,3.40
2022-07-27T10:45:10.871Z,3.85
2022-07-27T10:47:50.205Z,3.55
2022-07-27T10:50:27.082Z,3.80
2022-07-27T10:53:03.241Z,3.95
2022-07-27T10:55:49.504Z,4.95
2022-07-27T10:58:48.701Z,4.00
2022-07-27T11:01:21.186Z,3.70
2022-07-27T11:03:53.812Z,3.60
2022-07-27T11:06:55.769Z,4.63
2022-07-27T11:10:03.010Z,3.53
2022-07-27T11:12:10.334Z,3.20
2022-07-27T11:14:57.133Z,5.55
2022-07-27T11:17:54.206Z,4.03
2022-07-27T11:20:28.758Z,3.13
2022-07-27T11:23:48.871Z,3.75
2022-07-27T11:26:02.720Z,3.38
2022-07-27T11:28:37.789Z,5.80
2022-07-27T11:31:09.934Z,3.53
2022-07-27T11:33:51.682Z,5.88
2022-07-27T11:36:21.375Z,4.10
2022-07-27T11:38:56.496Z,4.78
2022-07-27T11:42:03.123Z,4.00
2022-07-27T11:44:21.961Z,4.43
2022-07-27T11:46:56.306Z,4.03
2022-07-27T11:49:33.461Z,5.50
2022-07-27T11:52:08.949Z,17.17
2022-07-27T11:54:41.572Z,21.23
2022-07-27T11:57:19.624Z,26.40
2022-07-27T12:02:23.256Z,15.38
2022-07-27T12:04:57.871Z,16.40
2022-07-27T12:07:34.776Z,10.65
2022-07-27T12:10:09.006Z,9.05
2022-07-27T12:12:39.607Z,6.43
2022-07-27T12:15:44.647Z,7.20
2022-07-27T12:18:10.852Z,6.75
2022-07-27T12:20:40.297Z,4.75
2022-07-27T12:23:10.878Z,5.53
2022-07-27T12:25:40.815Z,5.80
2022-07-27T12:28:26.844Z,6.03
2022-07-27T12:30:56.446Z,5.63
2022-07-27T12:33:36.201Z,3.63
2022-07-27T12:36:09.126Z,5.30
2022-07-27T12:38:49.683Z,4.78
2022-07-27T12:41:38.675Z,5.05
2022-07-27T12:44:17.890Z,4.57
2022-07-27T12:47:15.055Z,5.47
2022-07-27T12:49:46.595Z,5.68
2022-07-27T12:52:16.087Z,5.47
2022-07-27T12:54:45.435Z,5.32
2022-07-27T12:57:20.978Z,7.55
2022-07-27T13:00:03.853Z,5.05
2022-07-27T13:02:33.256Z,5.18
2022-07-27T13:05:02.643Z,4.90
2022-07-27T13:07:31.977Z,6.13
2022-07-27T13:10:04.384Z,5.82
2022-07-27T13:12:34.593Z,4.90
2022-07-27T13:15:05.858Z,6.47
2022-07-27T13:17:38.867Z,6.97
2022-07-27T13:20:10.879Z,6.57
2022-07-27T13:22:42.282Z,5.90
2022-07-27T13:25:16.085Z,6.07
2022-07-27T13:27:49.201Z,7.47
2022-07-27T13:30:20.522Z,5.18
2022-07-27T13:32:49.929Z,5.20
2022-07-27T13:35:19.257Z,5.03
2022-07-27T13:37:48.740Z,5.10
2022-07-27T13:40:18.068Z,9.27
2022-07-27T13:42:47.369Z,6.78
2022-07-27T13:45:18.953Z,6.70
2022-07-27T13:47:48.203Z,6.35
2022-07-27T13:50:19.752Z,7.07
2022-07-27T13:52:50.512Z,6.65
2022-07-27T13:55:23.636Z,6.15
2022-07-27T13:57:57.149Z,7.00
2022-07-27T14:00:29.142Z,6.95
2022-07-27T14:02:58.523Z,7.45
2022-07-27T14:05:28.403Z,6.78
2022-07-27T14:07:59.817Z,7.15
2022-07-27T14:10:41.311Z,7.35
2022-07-27T14:13:17.418Z,6.88
2022-07-27T14:15:52.817Z,8.18
2022-07-27T14:18:28.837Z,7.40
2022-07-27T14:21:01.403Z,7.45
2022-07-27T14:23:34.984Z,7.15
2022-07-27T14:26:09.243Z,7.20
2022-07-27T14:28:40.133Z,6.93
2022-07-27T14:31:12.390Z,7.70
2022-07-27T14:33:42.275Z,6.78
2022-07-27T14:36:11.683Z,7.82
2022-07-27T14:38:45.415Z,6.80
2022-07-27T14:41:14.733Z,8.45
2022-07-27T14:43:43.989Z,7.38
2022-07-27T14:46:13.287Z,7.63
2022-07-27T14:49:05.323Z,7.22
2022-07-27T14:51:34.379Z,7.88
2022-07-27T14:54:07.316Z,7.03
2022-07-27T14:56:37.631Z,7.47
2022-07-27T14:59:08.110Z,7.18
2022-07-27T15:01:38.434Z,9.07
2022-07-27T15:04:08.596Z,8.15
2022-07-27T15:06:39.185Z,7.55
2022-07-27T15:09:11.185Z,7.20
2022-07-27T15:11:40.764Z,6.00
2022-07-27T15:14:10.221Z,6.93
2022-07-27T15:16:40.101Z,6.20
2022-07-27T15:19:09.450Z,6.93
2022-07-27T15:21:39.252Z,5.85
2022-07-27T15:24:09.264Z,6.03
2022-07-27T15:26:38.720Z,6.13
2022-07-27T15:29:08.442Z,6.07
2022-07-27T15:31:37.888Z,6.07
2022-07-27T15:34:07.446Z,5.97
2022-07-27T15:36:43.586Z,6.18
2022-07-27T15:39:16.166Z,6.70
2022-07-27T15:41:45.772Z,5.78
2022-07-27T15:44:15.562Z,5.68
2022-07-27T15:46:44.847Z,6.05
2022-07-27T15:49:14.726Z,5.05
2022-07-27T15:51:44.525Z,5.90
2022-07-27T15:54:13.923Z,5.53
2022-07-27T15:56:44.121Z,5.10
2022-07-27T15:59:15.291Z,5.63
2022-07-27T16:01:45.289Z,6.55
2022-07-27T16:04:16.646Z,6.93
2022-07-27T16:06:46.132Z,5.78
2022-07-27T16:09:15.625Z,6.05
2022-07-27T16:11:45.211Z,5.35
2022-07-27T16:14:14.456Z,5.30
2022-07-27T16:16:45.715Z,5.90
2022-07-27T16:19:15.385Z,6.22
2022-07-27T16:21:54.246Z,5.88
2022-07-27T16:24:27.571Z,6.25
2022-07-27T16:26:58.189Z,6.30
2022-07-27T16:29:28.479Z,6.97
2022-07-27T16:32:02.073Z,6.53
2022-07-27T16:34:33.782Z,7.18
2022-07-27T16:37:03.127Z,6.78
2022-07-27T16:39:34.567Z,5.90
2022-07-27T16:42:04.382Z,7.03
2022-07-27T16:44:33.771Z,6.60
2022-07-27T16:47:03.818Z,6.70
2022-07-27T16:49:36.569Z,7.45
2022-07-27T16:52:07.885Z,7.38
2022-07-27T16:54:39.787Z,8.23
2022-07-27T16:57:11.565Z,6.82
2022-07-27T16:59:42.669Z,7.35
2022-07-27T17:02:15.756Z,8.07
2022-07-27T17:04:45.347Z,7.72
2022-07-27T17:07:15.379Z,8.05
2022-07-27T17:09:44.648Z,7.60
2022-07-27T17:12:17.438Z,8.00
2022-07-27T17:14:48.031Z,7.32
2022-07-27T17:17:17.565Z,7.07
2022-07-27T17:19:46.943Z,7.57
2022-07-27T17:22:16.425Z,7.80
2022-07-27T17:24:45.990Z,8.65
2022-07-27T17:27:15.259Z,8.20
2022-07-27T17:29:45.789Z,8.50
2022-07-27T17:32:15.118Z,8.43
2022-07-27T17:34:46.528Z,7.70
2022-07-27T17:37:16.430Z,8.63
2022-07-27T17:39:45.964Z,7.53
2022-07-27T17:42:16.123Z,8.52
2022-07-27T17:44:45.368Z,8.07
2022-07-27T17:47:14.895Z,8.15
2022-07-27T17:49:46.478Z,8.43
2022-07-27T17:52:16.180Z,8.40
2022-07-27T17:54:48.430Z,9.02
2022-07-27T17:57:17.933Z,7.07
2022-07-27T17:59:47.724Z,8.50
2022-07-27T18:02:21.267Z,7.97
2022-07-27T18:04:50.650Z,8.98
2022-07-27T18:07:20.450Z,8.25
2022-07-27T18:09:49.873Z,8.52
2022-07-27T18:12:22.631Z,7.88
2022-07-27T18:15:04.687Z,8.43
2022-07-27T18:17:35.878Z,8.23
2022-07-27T18:20:05.424Z,7.85
2022-07-27T18:22:38.374Z,8.15
2022-07-27T18:25:10.224Z,7.93
2022-07-27T18:27:40.211Z,8.82
2022-07-27T18:30:10.166Z,9.25
2022-07-27T18:32:39.792Z,8.25
2022-07-27T18:35:12.632Z,8.25
2022-07-27T18:37:42.069Z,8.90
2022-07-27T18:40:12.435Z,8.05
2022-07-27T18:42:42.050Z,8.23
2022-07-27T18:45:12.266Z,7.18
2022-07-27T18:47:41.690Z,9.18
2022-07-27T18:50:19.112Z,8.38
2022-07-27T18:52:48.340Z,8.18
2022-07-27T18:55:23.914Z,8.05
2022-07-27T18:57:54.085Z,8.48
2022-07-27T19:00:25.682Z,8.45
2022-07-27T19:02:58.116Z,9.13
2022-07-27T19:05:40.531Z,7.90
2022-07-27T19:08:13.751Z,8.38
2022-07-27T19:10:44.842Z,8.30
2022-07-27T19:13:14.931Z,7.63
2022-07-27T19:15:45.797Z,8.23
2022-07-27T19:18:15.211Z,7.65
2022-07-27T19:20:44.414Z,8.00
2022-07-27T19:23:13.903Z,8.18
2022-07-27T19:25:43.364Z,8.85
2022-07-27T19:28:16.072Z,8.30
2022-07-27T19:30:45.503Z,6.97
2022-07-27T19:33:15.232Z,7.85
2022-07-27T19:35:44.627Z,8.15
2022-07-27T19:38:14.397Z,8.35
2022-07-27T19:40:45.803Z,8.65
2022-07-27T19:43:16.270Z,9.55
2022-07-27T19:45:46.144Z,7.80
2022-07-27T19:48:16.247Z,9.23
2022-07-27T19:50:46.733Z,9.27
2022-07-27T19:53:16.079Z,8.70
2022-07-27T19:55:45.450Z,9.18
2022-07-27T19:58:14.854Z,17.40
2022-07-27T20:00:45.599Z,11.27
2022-07-27T20:03:15.385Z,10.00
2022-07-27T20:05:44.801Z,9.57
2022-07-27T20:08:15.222Z,9.48
2022-07-27T20:10:45.198Z,9.25
2022-07-27T20:13:17.252Z,9.32
2022-07-27T20:15:46.905Z,9.38
2022-07-27T20:18:16.390Z,9.48
2022-07-27T20:20:45.826Z,9.25
2022-07-27T20:23:15.430Z,9.27
2022-07-27T20:25:44.754Z,9.18
2022-07-27T20:28:14.054Z,9.98
2022-07-27T20:30:43.489Z,9.98
2022-07-27T20:33:13.045Z,9.65
2022-07-27T20:35:42.384Z,9.65
2022-07-27T20:38:11.759Z,9.93
2022-07-27T20:40:41.075Z,9.45
2022-07-27T20:43:10.484Z,9.30
2022-07-27T20:45:40.356Z,9.70
2022-07-27T20:48:10.197Z,9.95
2022-07-27T20:50:39.510Z,10.75
2022-07-27T20:53:08.735Z,9.95
2022-07-27T20:55:38.943Z,9.32
2022-07-27T20:58:08.390Z,10.48
2022-07-27T21:00:38.419Z,8.98
2022-07-27T21:03:07.899Z,10.10
2022-07-27T21:05:37.323Z,9.30
2022-07-27T21:08:07.098Z,10.27
2022-07-27T21:10:36.604Z,9.02
2022-07-27T21:13:05.979Z,8.80
2022-07-27T21:15:35.635Z,9.05
2022-07-27T21:18:05.102Z,9.25
2022-07-27T21:20:34.318Z,9.80
2022-07-27T21:23:16.016Z,9.18
2022-07-27T21:25:45.321Z,9.88
2022-07-27T21:28:18.307Z,10.65
2022-07-27T21:30:52.952Z,10.02
2022-07-27T21:33:22.381Z,10.13
2022-07-27T21:35:51.699Z,10.27
2022-07-27T21:38:21.875Z,9.80
2022-07-27T21:40:51.195Z,10.32
2022-07-27T21:43:20.491Z,9.70
2022-07-27T21:45:50.266Z,11.50
2022-07-27T21:48:19.745Z,10.45
2022-07-27T21:51:41.635Z,10.18
2022-07-27T21:54:11.394Z,9.95
2022-07-27T21:56:43.108Z,10.00
2022-07-27T21:59:14.299Z,9.15
2022-07-27T22:01:43.993Z,10.02
2022-07-27T22:04:13.813Z,9.80
2022-07-27T22:06:43.494Z,9.57
2022-07-27T22:09:12.932Z,9.45
2022-07-27T22:11:42.460Z,9.80
2022-07-27T22:14:12.190Z,9.60
2022-07-27T22:16:41.904Z,9.65
2022-07-27T22:19:11.279Z,11.15
2022-07-27T22:21:40.758Z,14.38
2022-07-27T22:24:10.585Z,14.43
2022-07-27T22:26:40.499Z,14.07
2022-07-27T22:29:09.775Z,13.57
2022-07-27T22:31:39.120Z,13.35
2022-07-27T22:34:08.490Z,13.20
2022-07-27T22:36:37.850Z,13.13
2022-07-27T22:39:07.142Z,12.70
2022-07-27T22:41:36.529Z,12.02
2022-07-27T22:44:05.921Z,12.13
2022-07-27T22:46:35.268Z,12.00
2022-07-27T22:49:05.185Z,11.50
2022-07-27T22:51:49.852Z,12.38
2022-07-27T22:54:22.569Z,12.00
2022-07-27T22:56:52.054Z,11.63
2022-07-27T22:59:22.171Z,11.63
2022-07-27T23:01:52.461Z,12.18
2022-07-27T23:04:21.915Z,12.80
2022-07-27T23:06:51.397Z,11.75
2022-07-27T23:09:20.916Z,11.85
2022-07-27T23:11:50.440Z,11.40
2022-07-27T23:14:19.825Z,11.48
2022-07-27T23:16:49.172Z,12.55
2022-07-27T23:19:18.544Z,12.00
2022-07-27T23:21:48.266Z,13.48
2022-07-27T23:24:19.099Z,12.20
2022-07-27T23:26:58.851Z,13.52
2022-07-27T23:29:28.616Z,12.85
2022-07-27T23:31:58.121Z,12.55
2022-07-27T23:34:30.062Z,12.20
2022-07-27T23:36:59.549Z,13.32
2022-07-27T23:39:29.861Z,13.05
2022-07-27T23:41:59.150Z,14.50
2022-07-27T23:44:28.743Z,15.98
2022-07-27T23:46:58.032Z,14.50
2022-07-27T23:49:27.555Z,14.45
2022-07-27T23:51:56.766Z,15.80
2022-07-27T23:54:26.132Z,14.05
2022-07-27T23:56:55.438Z,16.27
2022-07-27T23:59:25.197Z,15.18
